Latest Weather Observations for Mount Read

IDT60801

Issued at 1:35 pm EST Wednesday 1 October 2014 (issued every 30 minutes, with the page automatically refreshed every 10 minutes)

About weather observations | Map of weather stations | Latest weather observations for TAS | Other Formats
Station Details ID: 097085 Name: MOUNT READ Lat: -41.84 Lon: 145.54 Height: 1119.5 m
Data from the previous 72 hours. | See also: Recent months at Mount Read
Date/Time
EST
Temp
°C
App
Temp
°C
Dew
Point
Rel
Hum
%
Delta-T
°C
Wind Press
QNH
hPa
Press
MSL
hPa
Rain
since 9 am
mm
Dir
 
Spd
km/h
Gust
km/h
Spd
kts
Gust
kts
01/01:30pm 0.4 -9.3 0.3 99 0.0 WSW 41 56 22 30 1015.3 1016.4 15.4
01/01:05pm 0.3 -7.0 0.2 99 0.0 WSW 28 50 15 27 1015.4 1016.5 15.2
01/01:00pm 0.5 -7.1 0.4 99 0.0 WSW 30 46 16 25 1015.7 1016.7 15.2
01/12:50pm 0.5 -7.5 0.4 99 0.0 WSW 32 54 17 29 1015.6 1016.6 15.2
01/12:30pm 0.8 -7.2 0.7 99 0.0 WSW 32 48 17 26 1015.2 1016.3 15.0
01/12:27pm 0.7 -6.5 0.6 99 0.0 WSW 28 48 15 26 1015.3 1016.4 14.8
01/12:00pm 0.3 -7.0 0.2 99 0.0 WSW 28 41 15 22 1015.2 1016.3 13.0
01/11:30am 0.3 -9.1 0.2 99 0.0 SW 39 54 21 29 1015.1 1016.2 11.2
01/11:00am 0.1 -9.3 0.0 99 0.0 SW 39 52 21 28 1014.8 1015.8 8.0
01/10:38am 0.0 -10.2 -0.1 99 0.0 SW 43 67 23 36 1014.3 1015.4 6.4
01/10:30am 0.0 -9.4 -0.1 99 0.0 SW 39 52 21 28 1014.4 1015.5 5.6
01/10:00am -0.1 -10.3 -0.2 99 0.0 WSW 43 54 23 29 1014.2 1015.3 3.8
01/09:35am -0.3 -10.7 -0.4 99 0.0 WSW 44 63 24 34 1013.9 1015.6 1.8
01/09:30am -0.3 -10.5 -0.4 99 0.0 SW 43 57 23 31 1013.9 1015.6 1.6
01/09:00am -0.1 -10.5 -0.2 99 0.0 WSW 44 57 24 31 1013.7 1015.4 17.6
01/08:47am -0.2 -7.9 -0.3 99 0.0 SW 30 50 16 27 1013.7 1015.4 17.6
01/08:30am -0.3 -7.7 -0.4 99 0.0 SW 28 35 15 19 1013.5 1015.3 17.6
01/08:00am -0.4 -9.1 -0.5 99 0.0 SW 35 44 19 24 1013.0 1014.7 17.6
01/07:30am -1.0 -10.2 -1.1 99 0.0 SW 37 50 20 27 1012.1 1013.8 17.6
01/07:00am -0.8 -9.2 -0.9 99 0.0 SW 33 44 18 24 1011.8 1013.5 17.6
01/06:30am -0.5 -9.6 -0.6 99 0.0 SW 37 43 20 23 1010.9 1012.6 17.6
01/06:00am -0.7 -9.8 -0.8 99 0.0 SW 37 48 20 26 1010.3 1012.0 17.6
01/05:36am -0.6 -9.7 -0.7 99 0.0 SW 37 57 20 31 1009.3 1010.9 17.6
01/05:30am -0.6 -10.1 -0.7 99 0.0 SW 39 48 21 26 1009.3 1010.9 17.6
01/05:00am -0.9 -11.4 -1.0 99 0.0 SW 44 59 24 32 1008.3 1009.9 17.6
01/04:30am -1.1 -12.0 -1.2 99 0.0 SSW 46 57 25 31 1007.3 1008.9 17.6
01/04:00am -1.9 -11.9 -2.0 99 -0.1 SSW 41 56 22 30 1007.1 1008.7 17.6
01/03:32am -0.9 -9.7 -1.0 99 0.0 SW 35 57 19 31 1006.6 1008.2 17.6
01/03:30am -0.8 -9.6 -0.9 99 0.0 SW 35 54 19 29 1007.0 1008.5 17.6
01/03:03am -1.0 -11.5 -1.1 99 0.0 SW 44 65 24 35 1006.0 1007.5 17.6
01/03:00am -0.9 -10.4 -1.0 99 0.0 SW 39 54 21 29 1006.3 1007.9 17.6
01/02:31am -1.4 -11.4 -1.5 99 0.0 SW 41 63 22 34 1005.6 1007.2 17.6
01/02:30am -1.3 -10.9 -1.4 99 0.0 SW 39 52 21 28 1006.0 1007.5 17.6
01/02:05am -1.3 -11.8 -1.4 99 0.0 SW 44 63 24 34 1005.5 1007.1 17.6
01/02:00am -1.2 -12.1 -1.3 99 0.0 SW 46 57 25 31 1005.3 1006.8 17.6
01/01:30am -1.2 -11.7 -1.3 99 0.0 SW 44 57 24 31 1005.0 1006.5 17.6
01/01:00am -1.3 -11.3 -1.4 99 0.0 SW 41 52 22 28 1004.8 1006.4 17.6
01/12:50am -1.3 -10.5 -1.4 99 0.0 SW 37 57 20 31 1004.6 1006.1 17.6
01/12:30am -1.3 -11.6 -1.4 99 0.0 SW 43 54 23 29 1004.4 1005.9 17.6
01/12:08am -1.2 -11.5 -1.3 99 0.0 SW 43 63 23 34 1003.6 1005.1 17.6
01/12:00am -1.1 -11.6 -1.2 99 0.0 SW 44 57 24 31 1003.7 1005.2 17.6
 
Date/Time
EST
Temp
°C
App
Temp
°C
Dew
Point
Rel
Hum
%
Delta-T
°C
Wind Press
QNH
hPa
Press
MSL
hPa
Rain
since 9 am
mm
Dir
 
Spd
km/h
Gust
km/h
Spd
kts
Gust
kts
30/11:30pm -1.0 -11.5 -1.1 99 0.0 WSW 44 63 24 34 1003.3 1004.8 17.6
30/11:04pm -1.6 -12.0 -1.7 99 0.0 SW 43 63 23 34 1002.8 1004.3 17.6
30/11:00pm -1.6 -12.6 -1.7 99 0.0 WSW 46 65 25 35 1002.8 1004.3 17.6
30/10:51pm -1.3 -9.6 -1.4 99 0.0 SW 32 57 17 31 1003.0 1004.4 17.6
30/10:30pm -1.5 -11.5 -1.6 99 0.0 SSW 41 52 22 28 1002.4 1003.8 17.6
30/10:00pm -2.0 -12.6 -2.1 99 -0.1 SW 44 63 24 34 1001.9 1003.4 17.6
30/09:50pm -1.3 -10.5 -1.4 99 0.0 WSW 37 59 20 32 1001.8 1003.3 17.6
30/09:30pm -1.3 -10.5 -1.4 99 0.0 SW 37 46 20 25 1001.8 1003.3 17.6
30/09:00pm -1.4 -10.6 -1.5 99 0.0 SW 37 52 20 28 1001.6 1003.0 17.6
30/08:30pm -1.5 -11.9 -1.6 99 0.0 SW 43 56 23 30 1001.1 1002.5 17.6
30/08:00pm -1.1 -12.0 -1.2 99 0.0 SW 46 61 25 33 1000.4 1001.8 17.6
30/07:40pm -0.8 -10.3 -0.9 99 0.0 WSW 39 67 21 36 999.9 1001.3 17.6
30/07:30pm -0.8 -10.7 -0.9 99 0.0 WSW 41 54 22 29 999.9 1001.3 17.6
30/07:00pm -0.4 -12.7 -0.5 99 0.0 SW 54 67 29 36 998.8 1000.2 17.4
30/06:58pm -0.5 -13.4 -0.6 99 0.0 SW 57 67 31 36 998.5 999.8 17.4
30/06:41pm -0.5 -7.9 -0.6 99 0.0 WSW 28 57 15 31 998.5 999.8 17.4
30/06:30pm -0.5 -9.2 -0.6 99 0.0 SW 35 54 19 29 997.9 999.3 17.4
30/06:00pm -0.9 -10.8 -1.0 99 0.0 SW 41 61 22 33 997.8 999.1 17.4
30/05:58pm -0.8 -10.3 -0.9 99 0.0 SW 39 61 21 33 997.7 999.0 17.4
30/05:45pm -1.0 -9.8 -1.1 99 0.0 SW 35 41 19 22 997.6 998.9 17.4
30/05:30pm -0.5 -13.2 -0.6 99 0.0 SW 56 83 30 45 996.7 998.0 17.4
30/05:24pm -0.6 -13.5 -0.7 99 0.0 SW 57 76 31 41 996.7 998.0 17.4
30/05:20pm -0.9 -15.4 -1.0 99 0.0 SW 65 76 35 41 996.4 997.7 17.4
30/05:00pm -0.3 -10.7 -0.4 99 0.0 WSW 44 63 24 34 996.8 998.1 17.4
30/04:39pm -0.1 -9.9 -0.2 99 0.0 WSW 41 59 22 32 996.5 997.8 17.4
30/04:30pm -0.1 -11.6 -0.2 99 0.0 WSW 50 61 27 33 996.0 997.3 17.4
30/04:02pm 0.1 -10.1 0.0 99 0.0 WSW 43 61 23 33 995.6 996.9 17.4
30/04:00pm 0.1 -10.2 0.0 99 0.0 WSW 44 61 24 33 995.3 996.5 17.4
30/03:33pm 0.3 -9.4 0.2 99 0.0 W 41 63 22 34 994.7 995.9 17.4
30/03:30pm 0.4 -8.6 0.3 99 0.0 W 37 54 20 29 994.7 995.9 17.4
30/03:00pm 1.1 -8.9 1.0 99 0.0 W 43 63 23 34 994.4 995.6 16.6
30/02:30pm 1.9 -9.3 1.8 99 0.0 WNW 50 72 27 39 993.9 995.1 14.8
30/02:13pm 3.1 -6.8 3.0 99 0.0 WNW 44 72 24 39 993.9 995.1 14.0
30/02:12pm 3.0 -5.9 2.9 99 0.0 WNW 39 48 21 26 994.0 995.2 14.0
30/02:00pm 3.1 -3.7 3.0 99 0.0 NNW 28 59 15 32 994.1 995.4 13.8
30/01:42pm 3.0 -4.2 2.9 99 0.0 NW 30 54 16 29 994.5 995.7 13.4
30/01:30pm 2.9 -4.0 2.8 99 0.0 NNW 28 46 15 25 994.7 995.9 13.4
30/01:00pm 2.8 -5.0 2.7 99 0.0 WNW 33 54 18 29 995.0 996.3 11.8
30/12:30pm 3.0 -8.0 2.9 99 0.0 WNW 50 76 27 41 995.0 996.3 9.6
30/12:01pm 3.3 -9.4 3.2 99 0.0 WNW 59 80 32 43 994.8 996.1 7.2
30/12:00pm 3.7 -4.7 3.6 99 0.0 WNW 37 76 20 41 995.3 996.5 7.0
30/11:53am 4.4 -3.5 4.3 99 0.0 WNW 35 56 19 30 995.5 996.7 5.8
30/11:51am 4.7 -3.9 4.6 99 0.0 WNW 39 56 21 30 995.4 996.6 5.4
30/11:30am 5.2 -4.6 5.1 99 0.0 NNW 46 72 25 39 994.9 996.2 4.2
30/11:00am 5.2 -4.1 5.1 99 0.0 NNW 43 78 23 42 995.6 996.9 4.0
30/10:30am 5.5 -4.7 5.4 99 0.0 NNW 48 80 26 43 996.5 997.8 3.8
30/10:16am 5.6 -4.9 5.5 99 0.0 NNW 50 85 27 46 996.6 997.9 3.8
30/10:00am 5.7 -3.1 5.6 99 0.0 NNW 41 65 22 35 996.8 998.1 3.6
30/09:30am 5.5 -4.3 5.4 99 0.0 NNW 46 74 25 40 997.4 998.7 2.8
30/09:00am 5.3 -3.6 5.2 99 0.0 N 41 63 22 34 997.5 998.8 16.2
30/08:30am 5.0 -5.3 4.9 99 0.0 N 48 70 26 38 997.8 999.1 12.6
30/08:13am 4.8 -4.7 4.7 99 0.0 N 44 63 24 34 998.2 999.5 11.0
30/08:00am 4.6 -5.0 4.5 99 0.0 N 44 59 24 32 998.4 999.7 10.8
30/07:30am 4.4 -6.0 4.3 99 0.0 N 48 74 26 40 998.6 999.9 9.4
30/07:00am 4.3 -6.1 4.2 99 0.0 N 48 74 26 40 998.9 1000.3 9.0
30/06:30am 4.2 -7.0 4.1 99 0.0 N 52 74 28 40 999.5 1000.9 8.8
30/06:03am 4.1 -6.0 4.0 99 0.0 N 46 70 25 38 999.4 1000.7 8.6
30/06:00am 4.1 -5.6 4.0 99 0.0 N 44 63 24 34 999.6 1001.0 8.6
30/05:30am 4.0 -6.5 3.9 99 0.0 N 48 69 26 37 999.7 1001.1 8.4
30/05:11am 3.8 -5.7 3.7 99 0.0 N 43 65 23 35 1000.3 1001.7 8.4
30/05:00am 3.7 -5.9 3.6 99 0.0 N 43 59 23 32 1000.5 1001.9 8.4
30/04:30am 3.7 -5.9 3.6 99 0.0 N 43 61 23 33 1001.2 1002.6 8.4
30/04:01am 3.7 -4.7 3.6 99 0.0 N 37 56 20 30 1001.7 1003.2 8.4
30/04:00am 3.7 -4.7 3.6 99 0.0 N 37 52 20 28 1001.8 1003.3 8.4
30/03:35am 3.7 -5.1 3.6 99 0.0 N 39 57 21 31 1001.8 1003.3 8.4
30/03:30am 3.7 -5.1 3.6 99 0.0 N 39 57 21 31 1001.8 1003.3 8.2
30/03:00am 3.8 -5.0 3.7 99 0.0 N 39 56 21 30 1002.3 1003.7 8.2
30/02:30am 3.8 -4.6 3.7 99 0.0 N 37 52 20 28 1003.1 1004.5 8.2
30/02:00am 4.1 -3.9 4.0 99 0.0 N 35 50 19 27 1003.7 1005.2 8.2
30/01:30am 4.1 -3.3 4.0 99 0.0 N 32 46 17 25 1004.4 1005.9 8.2
30/01:00am 4.1 -5.0 4.0 99 0.0 N 41 61 22 33 1004.7 1006.2 8.0
30/12:32am 4.0 -6.1 3.9 99 0.0 N 46 74 25 40 1004.5 1006.0 8.0
30/12:30am 4.0 -5.7 3.9 99 0.0 NNW 44 61 24 33 1004.6 1006.1 8.0
30/12:00am 3.9 -7.0 3.8 99 0.0 NNW 50 83 27 45 1005.2 1006.7 7.8
 
Date/Time
EST
Temp
°C
App
Temp
°C
Dew
Point
Rel
Hum
%
Delta-T
°C
Wind Press
QNH
hPa
Press
MSL
hPa
Rain
since 9 am
mm
Dir
 
Spd
km/h
Gust
km/h
Spd
kts
Gust
kts
29/11:48pm 3.8 -7.5 3.7 99 0.0 NNW 52 98 28 53 1005.0 1006.5 7.6
29/11:30pm 4.0 -5.1 3.9 99 0.0 NNW 41 78 22 42 1005.5 1007.1 7.6
29/11:00pm 4.1 -6.0 4.0 99 0.0 NNW 46 67 25 36 1005.6 1007.2 6.2
29/10:30pm 4.2 -5.5 4.1 99 0.0 NNW 44 76 24 41 1006.0 1007.5 6.2
29/10:12pm 4.3 -3.1 4.2 99 0.0 NNW 32 59 17 32 1006.3 1007.9 5.8
29/10:00pm 4.2 -3.2 4.1 99 0.0 NNW 32 48 17 26 1006.2 1007.7 5.6
29/09:30pm 4.2 -4.5 4.1 99 0.0 NNW 39 61 21 33 1006.1 1007.6 5.2
29/09:00pm 4.0 -4.7 3.9 99 0.0 NNW 39 63 21 34 1006.3 1007.9 4.8
29/08:32pm 3.8 -3.8 3.7 99 0.0 NNW 33 52 18 28 1006.4 1008.0 4.2
29/08:30pm 3.8 -3.8 3.7 99 0.0 NNW 33 46 18 25 1006.3 1007.9 4.2
29/08:00pm 3.6 -4.5 3.5 99 0.0 NNW 35 56 19 30 1006.6 1008.2 4.2
29/07:32pm 3.4 -6.2 3.3 99 0.0 NNW 43 65 23 35 1006.2 1007.7 4.0
29/07:30pm 3.3 -6.5 3.2 99 0.0 NNW 44 59 24 32 1006.5 1008.1 4.0
29/07:04pm 3.6 -5.6 3.5 99 0.0 NNW 41 61 22 33 1006.4 1008.0 3.6
29/07:00pm 3.6 -5.2 3.5 99 0.0 N 39 57 21 31 1006.0 1007.5 3.4
29/06:30pm 3.4 -6.2 3.3 99 0.0 NNW 43 72 23 39 1005.9 1007.4 3.2
29/06:00pm 3.5 -5.7 3.4 99 0.0 NNW 41 61 22 33 1005.6 1007.2 3.0
29/05:30pm 3.6 -4.2 2.7 94 0.4 NNW 33 54 18 29 1005.7 1007.3 3.0
29/05:00pm 3.8 -6.6 2.3 90 0.6 NNW 46 69 25 37 1005.7 1007.3 3.0
29/04:30pm 4.1 -5.9 2.1 87 0.9 NNW 44 67 24 36 1005.7 1007.3 3.0
29/04:00pm 4.6 -5.8 2.1 84 1.1 NNW 46 67 25 36 1005.4 1006.9 3.0
29/03:30pm 5.2 -4.8 2.2 81 1.3 NNW 44 76 24 41 1005.0 1006.5 3.0
29/03:28pm 5.3 -4.7 2.3 81 1.3 NNW 44 76 24 41 1004.7 1006.2 3.0
29/03:09pm 4.6 -4.0 2.8 88 0.8 NNW 37 56 20 30 1005.5 1007.1 3.0
29/03:00pm 4.9 -3.9 3.6 91 0.6 NNW 39 54 21 29 1005.6 1007.2 3.0
29/02:30pm 4.5 -4.3 3.8 95 0.3 NNW 39 61 21 33 1006.0 1007.5 3.0
29/02:08pm 4.7 -3.6 4.1 96 0.3 NNW 37 57 20 31 1006.0 1007.5 3.0
29/02:00pm 4.6 -4.5 4.0 96 0.3 NNW 41 57 22 31 1006.0 1007.5 3.0
29/01:30pm 3.8 -5.7 3.7 99 0.0 NNW 43 63 23 34 1006.0 1007.5 3.0
29/01:01pm 3.7 -4.3 3.6 99 0.0 NW 35 56 19 30 1006.3 1007.9 3.0
29/01:00pm 3.9 -5.6 3.8 99 0.0 NW 43 56 23 30 1006.2 1007.7 3.0
29/12:32pm 3.7 -5.1 3.6 99 0.0 NNW 39 59 21 32 1006.2 1007.7 3.0
29/12:30pm 3.9 -4.5 3.8 99 0.0 NNW 37 52 20 28 1006.2 1007.7 3.0
29/12:00pm 3.7 -3.4 3.6 99 0.0 NNW 30 48 16 26 1006.3 1007.9 3.0
29/11:39am 3.1 -4.1 3.0 99 0.0 NNW 30 48 16 26 1006.6 1008.2 2.2
29/11:30am 3.0 -3.8 2.9 99 0.0 NNW 28 43 15 23 1006.3 1007.9 1.2
29/11:00am 2.9 -2.8 2.8 99 0.0 NNW 22 39 12 21 1006.5 1008.1 0.2
29/10:30am 3.0 -2.7 2.9 99 0.0 NW 22 37 12 20 1006.3 1007.9 0.0
29/10:00am 3.1 -4.5 3.0 99 0.0 NNW 32 52 17 28 1006.0 1007.5 0.0
29/09:50am 2.8 -4.1 2.7 99 0.0 NNW 28 48 15 26 1006.0 1007.5 0.0
29/09:30am 2.8 -4.1 2.7 99 0.0 WNW 28 41 15 22 1006.1 1007.6 0.0
29/09:00am 2.6 -4.3 2.5 99 0.0 WNW 28 46 15 25 1006.1 1007.6 10.0
29/08:58am 2.3 -4.7 2.2 99 0.0 WNW 28 46 15 25 1006.1 1007.6 10.0
29/08:30am 2.4 -4.2 2.3 99 0.0 WNW 26 39 14 21 1005.4 1006.9 10.0
29/08:13am 2.1 -4.9 2.0 99 0.0 WNW 28 46 15 25 1005.4 1006.9 10.0
29/08:00am 2.0 -5.8 1.9 99 0.0 WNW 32 46 17 25 1005.1 1006.6 10.0
29/07:30am 1.8 -6.2 1.7 99 0.0 WNW 33 46 18 25 1004.7 1006.2 10.0
29/07:00am 1.8 -6.9 1.7 99 0.0 WNW 37 52 20 28 1004.3 1005.8 10.0
29/06:30am 2.0 -7.1 1.9 99 0.0 W 39 52 21 28 1003.7 1005.2 10.0
29/06:00am 2.2 -6.9 2.1 99 0.0 WNW 39 61 21 33 1002.7 1004.2 9.8
29/05:36am 2.1 -5.8 2.0 99 0.0 W 33 54 18 29 1002.7 1004.2 8.6
29/05:30am 2.2 -7.8 2.1 99 0.0 W 44 61 24 33 1002.4 1003.8 8.2
29/05:00am 2.5 -6.5 2.4 99 0.0 WNW 39 59 21 32 1001.5 1002.9 8.2
29/04:43am 2.7 -4.6 2.6 99 0.0 WNW 30 50 16 27 1001.4 1002.8 8.2
29/04:38am 2.6 -3.9 2.5 99 0.0 NW 26 44 14 24 1001.8 1003.3 8.2
29/04:30am 2.3 -8.8 2.2 99 0.0 W 50 70 27 38 1001.4 1002.8 8.2
29/04:00am 2.5 -8.2 2.4 99 0.0 W 48 72 26 39 1000.6 1002.0 7.6
29/03:34am 2.3 -5.6 2.2 99 0.0 W 33 67 18 36 1000.5 1001.9 7.6
29/03:30am 2.4 -4.2 2.3 99 0.0 WNW 26 37 14 20 1000.9 1002.4 7.6
29/03:00am 2.0 -8.8 1.9 99 0.0 W 48 72 26 39 1000.2 1001.6 7.6
29/02:30am 3.3 -9.4 3.2 99 0.0 WNW 59 89 32 48 998.3 999.6 7.4
29/02:22am 4.3 -8.6 4.2 99 0.0 WNW 61 85 33 46 998.2 999.5 6.2
29/02:00am 4.1 -6.0 4.0 99 0.0 NNW 46 69 25 37 997.6 998.9 2.0
29/01:30am 4.1 -5.0 4.0 99 0.0 NNW 41 70 22 38 998.4 999.7 0.6
29/01:00am 3.8 -5.0 3.7 99 0.0 NNW 39 61 21 33 998.9 1000.3 0.2
29/12:30am 3.7 -4.3 3.6 99 0.0 NNW 35 54 19 29 999.6 1001.0 0.0
29/12:00am 3.5 -4.6 3.4 99 0.0 NNW 35 61 19 33 1000.1 1001.4 0.0
 
Date/Time
EST
Temp
°C
App
Temp
°C
Dew
Point
Rel
Hum
%
Delta-T
°C
Wind Press
QNH
hPa
Press
MSL
hPa
Rain
since 9 am
mm
Dir
 
Spd
km/h
Gust
km/h
Spd
kts
Gust
kts
28/11:30pm 3.6 -5.2 3.5 99 0.0 NNW 39 65 21 35 999.9 1001.3 0.0
28/11:00pm 3.6 -4.8 3.5 99 0.0 NNW 37 59 20 32 1000.1 1001.4 0.0
28/10:30pm 3.9 -3.5 3.8 99 0.0 NNW 32 56 17 30 1000.1 1001.4 0.0
28/10:04pm 4.1 -2.9 4.0 99 0.0 NNW 30 48 16 26 1000.3 1001.7 0.0
28/10:00pm 4.2 -2.4 4.1 99 0.0 NNW 28 43 15 23 1000.4 1001.8 0.0
28/09:30pm 4.7 -2.6 4.6 99 0.0 NNW 32 54 17 29 1000.4 1001.8 0.0
28/09:09pm 5.0 -2.2 4.9 99 0.0 NNW 32 54 17 29 1000.5 1001.9 0.0
28/09:00pm 5.5 -1.6 5.4 99 0.0 NNW 32 44 17 24 1000.7 1002.1 0.0
28/08:34pm 5.9 -1.1 5.8 99 0.0 NNW 32 52 17 28 1000.7 1002.1 0.0
28/08:30pm 5.7 -1.6 5.6 99 0.0 NNW 33 52 18 28 1000.5 1001.9 0.0
28/08:14pm 5.8 -0.9 5.7 99 0.0 NNW 30 48 16 26 1000.6 1002.0 0.0
28/08:00pm 6.0 -1.0 5.9 99 0.0 NNW 32 46 17 25 1000.6 1002.0 0.0
28/07:30pm 6.4 -2.2 6.3 99 0.0 NNW 41 61 22 33 1000.5 1001.9 0.0
28/07:00pm 7.3 -1.1 7.2 99 0.1 NNW 41 61 22 33 1000.5 1001.9 0.0
28/06:30pm 7.8 -0.1 7.7 99 0.1 NNW 39 65 21 35 1000.4 1001.8 0.0
28/06:00pm 8.1 -0.1 8.0 99 0.1 NNW 41 70 22 38 1000.4 1001.8 0.0
28/05:30pm 8.2 -1.8 7.9 98 0.2 NNW 50 78 27 42 1000.4 1001.8 0.0
28/05:16pm 8.5 -3.2 7.7 95 0.4 NNW 59 82 32 44 1000.4 1001.8 0.0
28/05:01pm 8.9 1.7 7.5 91 0.7 NNW 35 67 19 36 1000.7 1002.1 0.0
28/05:00pm 8.9 2.2 7.5 91 0.7 NNW 32 46 17 25 1000.8 1002.2 0.0
28/04:30pm 10.1 -0.5 7.0 81 1.6 NNW 52 83 28 45 1000.2 1001.6 0.0
28/04:00pm 10.4 -1.2 6.7 78 1.9 NNW 57 95 31 51 999.5 1000.9 0.0
28/03:42pm 10.9 -1.5 6.5 74 2.2 NNW 61 96 33 52 999.7 1001.1 0.0
28/03:30pm 11.0 0.1 7.1 77 2.0 NNW 54 76 29 41 1000.2 1001.6 0.0
28/03:00pm 10.9 -0.1 7.0 77 2.0 N 54 83 29 45 1000.4 1001.8 0.0
28/02:30pm 10.2 -1.3 6.9 80 1.7 N 57 82 31 44 1000.5 1001.9 0.0
28/02:00pm 10.0 -1.4 6.7 80 1.7 N 56 76 30 41 1001.1 1002.5 0.0

Other Formats:

Comma delimited format used in spreadsheet applications
http://www.bom.gov.au/fwo/IDT60801/IDT60801.95952.axf

JavaScript Object Notation format (JSON) in row-major order
http://www.bom.gov.au/fwo/IDT60801/IDT60801.95952.json